Hart, Texas
Current Conditions -  °F | °C
As of 11:55 AM on Saturday 20 Dec 2014 (Local Time) from KPVW Reporting Station
Scattered Clouds Scattered Clouds  
Wind Chill: 36°   Ceiling: Unl
Heat Index: 42°   Visibility: 10mi
Dew Point: 37°   Wind: 12mph
Humidity: 81%   Direction: 210°SSW
Pressure: 30.11"   Gusts: NA
Location:  34.39°N, 102.12°W
Report Text: KPVW 201755Z AUTO 21010KT 10SM SCT006 06/03 A3011 RMK AO2 T00570027 10057 20015
Loading
Personal Weather Stations






























Interactive Weather Map New forecast layout! Learn more

10-Day Weather Forecast

Advertisements
Track Severe Weather on mobile